Terminal Aerodrome Forecast
Issued by NWS Nashville, TN

Home | Current Version | Previous Version | Text Only | Print | Product List | Glossary On
Versions: 1 2 3 4 5 6 7 8 9 10 11 12 13 14
000
FTUS44 KOHX 231727
TAFBNA
TAF
KBNA 231727Z 2318/2418 23003KT P6SM SCT035 BKN090
     FM240900 22002KT P6SM VCSH BKN040
     FM241100 21004KT 5SM -SHRA OVC020=

USA.gov is the U.S. government's official web portal to all federal, state and local government web resources and services.